createdAt,value
2023-11-25T00:03:28.388Z,8.80
2023-11-25T00:21:23.459Z,10.10
2023-11-25T00:25:11.347Z,9.20
2023-11-25T00:28:42.103Z,13.40
2023-11-25T00:32:29.551Z,11.00
2023-11-25T00:36:18.064Z,9.60
2023-11-25T00:40:06.633Z,6.90
2023-11-25T00:43:46.658Z,13.00
2023-11-25T01:09:55.861Z,8.30
2023-11-25T01:13:43.066Z,8.40
2023-11-25T01:17:15.932Z,10.30
2023-11-25T01:20:54.929Z,11.10
2023-11-25T01:24:35.637Z,10.40
2023-11-25T01:37:19.531Z,11.20
2023-11-25T01:40:53.546Z,9.10
2023-11-25T01:44:29.846Z,10.60
2023-11-25T01:48:06.283Z,11.40
2023-11-25T01:56:27.509Z,10.70
2023-11-25T01:59:56.942Z,12.40
2023-11-25T02:08:10.363Z,14.00
2023-11-25T02:11:52.404Z,13.20
2023-11-25T02:37:33.075Z,7.80
2023-11-25T02:55:37.986Z,9.20
2023-11-25T02:59:21.775Z,11.00
2023-11-25T03:03:10.499Z,7.60
2023-11-25T03:06:53.248Z,9.70
2023-11-25T03:10:06.529Z,13.00
2023-11-25T03:22:13.008Z,11.60
2023-11-25T03:25:46.856Z,10.60
2023-11-25T03:29:23.466Z,10.70
2023-11-25T03:33:12.261Z,9.00
2023-11-25T03:36:53.580Z,9.80
2023-11-25T03:40:25.111Z,10.20
2023-11-25T03:44:08.090Z,11.70
2023-11-25T03:47:25.843Z,10.10
2023-11-25T03:51:07.035Z,10.80
2023-11-25T03:54:34.476Z,10.80
2023-11-25T03:58:22.952Z,10.20
2023-11-25T04:13:59.330Z,9.40
2023-11-25T04:17:22.278Z,20.10
2023-11-25T04:20:51.359Z,12.70
2023-11-25T04:24:12.173Z,11.30
2023-11-25T04:27:38.017Z,18.20
2023-11-25T04:31:19.692Z,18.20
2023-11-25T04:39:54.190Z,19.50
2023-11-25T04:43:15.590Z,16.00
2023-11-25T04:46:53.002Z,20.10
2023-11-25T04:50:46.293Z,20.50
2023-11-25T04:54:19.291Z,17.50
2023-11-25T04:58:07.368Z,20.40
2023-11-25T05:16:57.711Z,20.60
2023-11-25T05:29:51.719Z,18.90
2023-11-25T05:33:27.492Z,17.50
2023-11-25T05:41:51.277Z,23.90
2023-11-25T05:45:16.328Z,23.30
2023-11-25T06:03:09.364Z,20.70
2023-11-25T06:06:55.457Z,19.70
2023-11-25T06:14:34.693Z,14.60
2023-11-25T06:18:25.234Z,13.20
2023-11-25T06:22:12.538Z,17.30
2023-11-25T06:25:50.027Z,15.40
2023-11-25T06:29:43.498Z,17.30
2023-11-25T06:33:35.521Z,14.60
2023-11-25T06:37:25.527Z,16.60
2023-11-25T06:46:47.132Z,18.30
2023-11-25T06:49:58.740Z,18.60
2023-11-25T06:53:05.016Z,21.30
2023-11-25T07:10:44.273Z,18.80
2023-11-25T07:13:16.186Z,19.60
2023-11-25T07:16:52.535Z,20.90
2023-11-25T07:24:48.059Z,31.50
2023-11-25T07:27:35.104Z,31.90
2023-11-25T07:30:30.042Z,29.40
2023-11-25T07:33:37.351Z,32.60
2023-11-25T07:36:38.683Z,38.60
2023-11-25T07:39:58.432Z,28.90
2023-11-25T07:42:28.401Z,28.10
2023-11-25T07:50:31.394Z,28.60
2023-11-25T07:53:24.803Z,26.80
2023-11-25T07:56:13.165Z,25.80
2023-11-25T07:58:55.296Z,23.00
2023-11-25T08:01:47.322Z,24.60
2023-11-25T08:04:35.369Z,20.50
2023-11-25T08:07:12.961Z,21.60
2023-11-25T08:09:58.143Z,20.10
2023-11-25T08:12:29.005Z,20.00
2023-11-25T08:15:36.463Z,18.20
2023-11-25T08:18:08.565Z,16.50
2023-11-25T08:21:16.191Z,14.20
2023-11-25T08:23:57.589Z,18.30
2023-11-25T08:31:41.433Z,16.30
2023-11-25T08:34:41.688Z,15.90
2023-11-25T08:37:59.548Z,14.70
2023-11-25T08:40:43.686Z,13.90
2023-11-25T08:43:35.302Z,15.70
2023-11-25T08:46:29.844Z,16.00
2023-11-25T08:49:50.302Z,14.00
2023-11-25T08:52:28.802Z,14.90
2023-11-25T08:57:31.591Z,14.60
2023-11-25T09:00:27.989Z,14.70
2023-11-25T09:03:20.558Z,14.70
2023-11-25T09:06:20.981Z,16.50
2023-11-25T09:08:51.456Z,15.00
2023-11-25T09:12:02.898Z,15.80
2023-11-25T09:15:10.086Z,15.70
2023-11-25T09:18:10.500Z,14.00
2023-11-25T09:21:16.857Z,15.20
2023-11-25T09:24:16.096Z,12.40
2023-11-25T09:32:19.582Z,14.80
2023-11-25T09:35:16.466Z,16.20
2023-11-25T09:38:00.253Z,14.30
2023-11-25T09:40:45.943Z,13.00
2023-11-25T09:43:19.819Z,15.00
2023-11-25T09:45:51.838Z,17.10
2023-11-25T09:48:26.940Z,14.70
2023-11-25T09:51:25.873Z,17.90
2023-11-25T09:54:12.045Z,15.80
2023-11-25T09:57:07.709Z,15.70
2023-11-25T09:59:38.066Z,12.00
2023-11-25T10:02:15.288Z,12.70
2023-11-25T10:04:46.509Z,15.70
2023-11-25T10:07:28.873Z,12.40
2023-11-25T10:10:12.159Z,12.40
2023-11-25T10:12:43.226Z,15.80
2023-11-25T10:15:11.869Z,14.30
2023-11-25T10:17:46.993Z,13.00
2023-11-25T10:21:01.171Z,12.80
2023-11-25T10:23:45.350Z,13.30
2023-11-25T10:26:19.123Z,13.10
2023-11-25T10:28:50.149Z,13.70
2023-11-25T10:31:20.873Z,11.90
2023-11-25T10:33:51.497Z,12.20
2023-11-25T10:37:05.404Z,13.20
2023-11-25T10:40:08.326Z,11.50
2023-11-25T10:43:20.251Z,12.80
2023-11-25T10:46:10.494Z,9.00
2023-11-25T10:48:52.729Z,9.40
2023-11-25T10:51:28.748Z,11.70
2023-11-25T10:54:23.062Z,11.50
2023-11-25T10:57:06.904Z,11.00
2023-11-25T10:59:51.016Z,9.60
2023-11-25T11:02:53.117Z,10.50
2023-11-25T11:06:25.861Z,10.00
2023-11-25T11:09:20.658Z,12.70
2023-11-25T11:12:48.273Z,14.60
2023-11-25T11:16:06.490Z,14.00
2023-11-25T11:33:46.503Z,11.90
2023-11-25T11:41:44.655Z,14.00
2023-11-25T11:44:21.211Z,14.90
2023-11-25T11:47:12.724Z,13.60
2023-11-25T11:49:40.446Z,14.40
2023-11-25T11:52:47.473Z,13.60
2023-11-25T11:55:54.680Z,14.10
2023-11-25T11:59:08.256Z,11.40
2023-11-25T12:07:33.789Z,10.70
2023-11-25T12:10:45.115Z,13.40
2023-11-25T12:13:54.553Z,14.30
2023-11-25T12:17:13.660Z,13.40
2023-11-25T12:25:49.415Z,13.10
2023-11-25T12:29:17.774Z,12.00
2023-11-25T12:41:31.812Z,12.50
2023-11-25T12:44:33.398Z,12.70
2023-11-25T12:47:08.836Z,15.70
2023-11-25T12:49:46.449Z,16.00
2023-11-25T12:52:33.709Z,15.20
2023-11-25T12:55:22.217Z,13.50
2023-11-25T12:58:27.147Z,16.60
2023-11-25T13:01:11.554Z,15.30
2023-11-25T13:03:53.419Z,18.70
2023-11-25T13:07:21.376Z,19.60
2023-11-25T13:10:02.493Z,19.10
2023-11-25T13:12:55.244Z,23.70
2023-11-25T13:16:20.402Z,23.60
2023-11-25T13:21:58.892Z,25.40
2023-11-25T13:25:02.033Z,24.10
2023-11-25T13:30:27.991Z,30.50
2023-11-25T13:33:17.484Z,34.70
2023-11-25T13:36:00.251Z,41.10
2023-11-25T13:39:09.599Z,43.70
2023-11-25T13:41:38.580Z,35.60
2023-11-25T13:44:36.534Z,33.00
2023-11-25T13:47:07.001Z,28.70
2023-11-25T13:49:35.350Z,26.30
2023-11-25T13:52:46.470Z,23.30
2023-11-25T13:55:55.608Z,24.50
2023-11-25T13:59:03.940Z,23.30
2023-11-25T14:01:58.173Z,31.00
2023-11-25T14:04:51.437Z,27.40
2023-11-25T14:07:59.079Z,24.10
2023-11-25T14:11:26.120Z,24.50
2023-11-25T14:14:29.557Z,26.00
2023-11-25T14:17:17.725Z,25.80
2023-11-25T14:20:24.116Z,31.40
2023-11-25T14:23:34.598Z,28.80
2023-11-25T14:26:40.783Z,28.60
2023-11-25T14:29:45.082Z,33.70
2023-11-25T14:33:23.071Z,33.40
2023-11-25T14:41:17.298Z,30.80
2023-11-25T14:44:58.700Z,30.60
2023-11-25T15:29:18.718Z,90.20
2023-11-25T15:37:48.553Z,145.20
2023-11-25T15:41:20.276Z,121.70
2023-11-25T16:03:19.709Z,121.10
2023-11-25T16:07:08.542Z,116.30
2023-11-25T16:10:56.376Z,125.50
2023-11-25T16:14:45.553Z,127.70
2023-11-25T16:22:43.301Z,127.80
2023-11-25T16:26:31.094Z,137.90
2023-11-25T16:30:15.998Z,146.20
2023-11-25T16:34:07.847Z,153.40
2023-11-25T16:52:00.196Z,128.80
2023-11-25T17:18:00.975Z,92.40
2023-11-25T17:21:48.630Z,101.50
2023-11-25T18:07:46.513Z,78.00
2023-11-25T18:11:20.611Z,82.90
2023-11-25T18:15:00.839Z,78.30
2023-11-25T18:18:40.453Z,84.00
2023-11-25T18:27:07.985Z,82.70
2023-11-25T18:30:41.595Z,83.60
2023-11-25T18:43:38.793Z,92.20
2023-11-25T18:47:04.280Z,88.50
2023-11-25T18:50:20.472Z,80.40
2023-11-25T18:58:40.644Z,86.80
2023-11-25T19:02:13.592Z,97.50
2023-11-25T19:14:58.948Z,100.90
2023-11-25T19:18:22.519Z,93.30
2023-11-25T19:22:04.616Z,82.10
2023-11-25T19:25:52.295Z,75.40
2023-11-25T19:29:41.061Z,72.90
2023-11-25T19:33:15.441Z,67.30
2023-11-25T19:36:39.612Z,69.90
2023-11-25T19:40:17.195Z,67.60
2023-11-25T19:53:01.984Z,87.40
2023-11-25T19:56:31.159Z,91.80
2023-11-25T19:59:57.986Z,94.10
2023-11-25T20:03:39.217Z,141.70
2023-11-25T20:07:19.425Z,167.20
2023-11-25T20:10:54.429Z,184.90
2023-11-25T20:14:19.993Z,177.00
2023-11-25T20:17:59.341Z,177.00
2023-11-25T20:21:36.068Z,157.40
2023-11-25T20:25:17.572Z,171.60
2023-11-25T20:29:00.344Z,159.90
2023-11-25T20:32:34.142Z,152.00
2023-11-25T20:36:22.688Z,147.40
2023-11-25T20:40:07.866Z,142.20
2023-11-25T20:43:56.559Z,134.40
2023-11-25T20:47:37.804Z,125.90
2023-11-25T20:51:10.814Z,118.80
2023-11-25T20:54:59.642Z,114.00
2023-11-25T20:58:48.116Z,110.20
2023-11-25T21:02:29.298Z,105.70
2023-11-25T21:06:02.525Z,94.20
2023-11-25T21:09:36.221Z,90.40
2023-11-25T21:13:02.627Z,90.10
2023-11-25T21:16:43.936Z,82.10
2023-11-25T21:20:30.395Z,75.30
2023-11-25T21:24:28.022Z,77.30
2023-11-25T21:28:16.225Z,82.90
2023-11-25T21:32:12.825Z,76.20
2023-11-25T21:35:54.831Z,73.30
2023-11-25T21:39:44.611Z,64.70
2023-11-25T21:43:28.680Z,70.00
2023-11-25T21:47:50.264Z,61.00
2023-11-25T21:51:32.831Z,65.10
2023-11-25T21:55:23.503Z,57.30
2023-11-25T21:59:12.036Z,59.30
2023-11-25T22:03:00.686Z,60.40
2023-11-25T22:06:49.441Z,55.70
2023-11-25T22:10:37.918Z,56.20
2023-11-25T22:14:30.431Z,53.30
2023-11-25T22:18:15.326Z,61.70
2023-11-25T22:22:03.828Z,58.10
2023-11-25T22:25:50.852Z,54.70
2023-11-25T22:29:48.184Z,55.20
2023-11-25T22:33:28.857Z,58.00
2023-11-25T22:37:24.575Z,61.90
2023-11-25T22:41:04.948Z,58.20
2023-11-25T22:48:45.528Z,82.60
2023-11-25T22:52:22.184Z,91.20
2023-11-25T22:56:09.777Z,94.80
2023-11-25T23:00:14.664Z,86.70
2023-11-25T23:03:57.125Z,79.70
2023-11-25T23:07:46.244Z,77.70
2023-11-25T23:11:27.736Z,84.40
2023-11-25T23:15:09.295Z,96.60
2023-11-25T23:18:57.809Z,79.70
2023-11-25T23:22:37.849Z,78.00
2023-11-25T23:26:15.175Z,72.10
2023-11-25T23:29:55.489Z,70.00
2023-11-25T23:33:42.195Z,66.60
2023-11-25T23:37:16.175Z,66.40
2023-11-25T23:41:04.810Z,72.50
2023-11-25T23:44:51.939Z,66.60
2023-11-25T23:48:39.673Z,55.60
2023-11-25T23:52:28.288Z,52.40
2023-11-25T23:56:22.346Z,56.40
